Time;durP1;ratioP1;P1;durP2;ratioP2;P2;SDS_P1;SDS_P2;PMS_P1;PMS_P2;Temp;Humidity;BMP_temperature;BMP_pressure;BME280_temperature;BME280_humidity;BME280_pressure;Samples;Min_cycle;Max_cycle;Signal;HPM_P1;HPM_P2
2022/09/19 00:01:16;;;;;;;4.28;2.03;;;;;;;8.49;100.00;101690.72;4952415;29;20036;-72
2022/09/19 00:03:50;;;;;;;7.60;1.92;;;;;;;8.48;100.00;101692.53;4952407;29;20479;-72
2022/09/19 00:06:17;;;;;;;8.25;1.60;;;;;;;8.42;100.00;101685.22;4952810;28;20038;-72
2022/09/19 00:08:45;;;;;;;9.50;1.80;;;;;;;8.42;100.00;101692.38;4952595;29;20061;-72
2022/09/19 00:11:13;;;;;;;13.98;3.33;;;;;;;8.43;100.00;101691.34;4952729;29;20023;-71
2022/09/19 00:13:44;;;;;;;7.22;2.17;;;;;;;8.43;100.00;101694.84;4952595;29;20113;-71
2022/09/19 00:16:11;;;;;;;17.50;2.23;;;;;;;8.44;100.00;101699.19;4934767;29;20042;-72
2022/09/19 00:18:37;;;;;;;4.60;2.40;;;;;;;8.45;100.00;101694.69;4952257;29;20637;-72
2022/09/19 00:21:02;;;;;;;6.55;2.72;;;;;;;8.41;100.00;101682.72;4952361;29;20039;-71
2022/09/19 00:26:17;;;;;;;5.47;1.83;;;;;;;8.38;100.00;101686.50;4952137;29;20037;-72
2022/09/19 00:28:44;;;;;;;8.85;2.17;;;;;;;8.37;100.00;101691.97;4952326;29;20031;-72
2022/09/19 00:31:17;;;;;;;7.90;2.42;;;;;;;8.37;100.00;101684.00;4935189;29;20031;-72
2022/09/19 00:33:44;;;;;;;11.50;3.13;;;;;;;8.32;100.00;101682.66;4952224;29;20031;-72
2022/09/19 00:36:09;;;;;;;7.80;2.42;;;;;;;8.35;100.00;101681.50;4951832;29;20027;-72
2022/09/19 00:38:34;;;;;;;9.70;2.13;;;;;;;8.38;100.00;101690.97;4935066;29;20049;-72
2022/09/19 00:41:00;;;;;;;18.40;3.30;;;;;;;8.37;100.00;101689.31;4934816;29;20138;-72
2022/09/19 00:43:45;;;;;;;9.63;2.35;;;;;;;8.37;100.00;101689.31;4952054;29;20113;-72
2022/09/19 00:46:10;;;;;;;7.55;1.35;;;;;;;8.31;100.00;101678.34;4952113;29;20435;-72
2022/09/19 00:48:40;;;;;;;8.50;1.77;;;;;;;8.32;100.00;101695.94;4951949;29;20061;-72
2022/09/19 00:51:05;;;;;;;8.27;1.80;;;;;;;8.36;100.00;101704.44;4951917;29;20050;-72
2022/09/19 00:53:31;;;;;;;11.93;3.42;;;;;;;8.31;100.00;101701.44;4951852;29;20031;-72
2022/09/19 00:55:57;;;;;;;14.43;2.65;;;;;;;8.34;100.00;101704.59;4951812;29;20038;-71
2022/09/19 00:58:34;;;;;;;11.13;2.08;;;;;;;8.31;100.00;101712.91;4951852;29;20035;-72
2022/09/19 01:01:00;;;;;;;10.48;3.45;;;;;;;8.31;100.00;101715.56;4951593;29;20023;-71
2022/09/19 01:03:27;;;;;;;5.07;1.40;;;;;;;8.29;100.00;101708.72;4951213;29;20694;-72
2022/09/19 01:06:04;;;;;;;14.90;3.67;;;;;;;8.29;100.00;101711.38;4951351;28;20042;-72
2022/09/19 01:08:42;;;;;;;12.23;3.38;;;;;;;8.24;100.00;101706.53;4950799;28;20113;-72
2022/09/19 01:11:38;;;;;;;7.15;1.60;;;;;;;8.28;100.00;101718.53;4951561;29;20019;-71
2022/09/19 01:14:28;;;;;;;6.15;1.75;;;;;;;8.30;100.00;101713.88;4951487;29;20146;-71
2022/09/19 01:17:07;;;;;;;8.30;1.70;;;;;;;8.30;100.00;101716.53;4951572;29;20063;-71
2022/09/19 01:19:42;;;;;;;5.38;2.13;;;;;;;8.29;100.00;101708.72;4951461;28;20126;-71
2022/09/19 01:22:10;;;;;;;9.50;1.67;;;;;;;8.29;100.00;101720.19;4951637;28;20074;-71
2022/09/19 01:24:56;;;;;;;9.55;1.92;;;;;;;8.28;100.00;101715.06;4951419;29;20639;-71
2022/09/19 01:27:49;;;;;;;7.47;1.52;;;;;;;8.33;100.00;101720.69;4951313;29;20123;-71
2022/09/19 01:30:16;;;;;;;11.38;1.60;;;;;;;8.35;100.00;101729.34;4951269;29;20031;-71
2022/09/19 01:32:51;;;;;;;11.45;1.60;;;;;;;8.38;100.00;101723.69;4951259;29;20047;-72
2022/09/19 01:35:22;;;;;;;8.50;2.50;;;;;;;8.44;100.00;101722.28;4951370;29;20045;-71
2022/09/19 01:37:53;;;;;;;9.03;1.87;;;;;;;8.47;100.00;101716.63;4950959;28;20024;-71
2022/09/19 01:40:21;;;;;;;14.82;3.67;;;;;;;8.51;100.00;101726.78;4951318;28;20043;-71
2022/09/19 01:42:55;;;;;;;9.68;1.60;;;;;;;8.54;100.00;101717.63;4932921;29;20035;-72
2022/09/19 01:45:32;;;;;;;9.88;1.13;;;;;;;8.54;100.00;101720.28;4932859;29;20034;-72
2022/09/19 01:48:14;;;;;;;6.07;1.75;;;;;;;8.50;100.00;101719.78;4950509;29;20039;-71
2022/09/19 01:50:39;;;;;;;10.75;2.65;;;;;;;8.55;100.00;101733.44;4951012;29;20049;-71
2022/09/19 01:53:13;;;;;;;7.07;1.30;;;;;;;8.56;100.00;101727.13;4950981;29;20479;-71
2022/09/19 01:55:56;;;;;;;8.73;2.03;;;;;;;8.58;100.00;101737.59;4951103;29;20303;-71
2022/09/19 01:58:35;;;;;;;8.77;2.33;;;;;;;8.59;100.00;101730.44;4950958;29;20042;-72
2022/09/19 02:01:45;;;;;;;7.57;1.42;;;;;;;8.60;100.00;101735.63;4933505;29;20026;-71
2022/09/19 02:04:18;;;;;;;9.38;2.10;;;;;;;8.59;100.00;101739.25;4950827;29;20039;-72
2022/09/19 02:06:49;;;;;;;11.73;1.50;;;;;;;8.56;100.00;101737.75;4944074;29;20387;-71
2022/09/19 02:09:47;;;;;;;10.20;2.35;;;;;;;8.57;100.00;101743.94;4950645;29;20082;-71
2022/09/19 02:12:16;;;;;;;6.10;1.40;;;;;;;8.54;100.00;101741.56;4918154;29;20051;-72
2022/09/19 02:14:52;;;;;;;8.80;3.70;;;;;;;8.49;100.00;101730.63;4950682;29;20110;-71
2022/09/19 02:17:24;;;;;;;5.00;1.75;;;;;;;8.49;100.00;101734.09;4950519;28;20042;-72
2022/09/19 02:19:56;;;;;;;6.28;1.58;;;;;;;8.48;100.00;101739.56;4953244;28;20055;-72
2022/09/19 02:22:31;;;;;;;6.55;1.45;;;;;;;8.49;100.00;101734.09;4954747;29;20031;-71
2022/09/19 02:25:02;;;;;;;7.50;2.13;;;;;;;8.49;100.00;101744.72;4954669;29;20115;-71
2022/09/19 02:27:43;;;;;;;3.10;1.08;;;;;;;8.50;100.00;101742.91;4954535;29;20399;-72
2022/09/19 02:30:10;;;;;;;10.13;1.98;;;;;;;8.48;100.00;101744.88;4937455;29;20402;-72
2022/09/19 02:32:36;;;;;;;8.25;1.42;;;;;;;8.46;100.00;101745.06;4936145;29;20505;-72
2022/09/19 02:35:05;;;;;;;7.28;2.08;;;;;;;8.44;100.00;101755.00;4936131;29;20038;-71
2022/09/19 02:37:48;;;;;;;10.27;2.70;;;;;;;8.41;100.00;101755.34;4954278;28;20039;-72
2022/09/19 02:40:23;;;;;;;7.88;3.20;;;;;;;8.39;100.00;101753.78;4935433;29;20044;-71
2022/09/19 02:43:07;;;;;;;10.45;1.20;;;;;;;8.36;100.00;101754.94;4936032;29;20051;-71
2022/09/19 02:45:44;;;;;;;8.80;1.60;;;;;;;8.34;100.00;101752.44;4953976;29;20031;-65
2022/09/19 02:48:29;;;;;;;5.80;1.67;;;;;;;8.30;100.00;101753.75;4937281;29;20035;-65
2022/09/19 02:51:04;;;;;;;6.60;1.85;;;;;;;8.26;100.00;101757.72;4935374;29;20082;-65
2022/09/19 02:53:36;;;;;;;9.80;1.63;;;;;;;8.25;100.00;101758.72;4935798;29;20028;-65
2022/09/19 02:56:03;;;;;;;8.10;1.75;;;;;;;8.21;100.00;101752.03;4954066;29;20424;-65
2022/09/19 02:58:38;;;;;;;10.05;1.77;;;;;;;8.22;100.00;101755.53;4954032;29;20086;-65
2022/09/19 03:01:09;;;;;;;6.95;2.10;;;;;;;8.21;100.00;101761.84;4935609;29;20468;-65
2022/09/19 03:06:55;;;;;;;8.50;1.63;;;;;;;8.11;100.00;101752.16;4953751;29;20436;-65
2022/09/19 03:09:23;;;;;;;5.80;1.52;;;;;;;8.16;100.00;101762.31;4953423;28;20583;-65
2022/09/19 03:11:58;;;;;;;10.80;3.05;;;;;;;8.16;100.00;101764.16;4953860;28;20015;-65
2022/09/19 03:14:24;;;;;;;6.53;1.20;;;;;;;8.14;100.00;101764.28;4953923;29;20058;-65
2022/09/19 03:16:56;;;;;;;5.10;1.30;;;;;;;8.14;100.00;101758.97;4953714;29;20037;-65
2022/09/19 03:19:23;;;;;;;7.38;2.00;;;;;;;8.13;100.00;101770.63;4953475;29;20051;-65
2022/09/19 03:21:52;;;;;;;9.93;2.00;;;;;;;8.16;100.00;101762.31;4953143;29;20402;-65
2022/09/19 03:24:17;;;;;;;4.43;1.50;;;;;;;8.16;100.00;101759.66;4953629;29;20050;-65
2022/09/19 03:26:43;;;;;;;8.15;1.58;;;;;;;8.20;100.00;101770.78;4953428;29;20055;-65
2022/09/19 03:29:08;;;;;;;16.00;3.03;;;;;;;8.20;100.00;101766.34;4953408;29;20046;-65
2022/09/19 03:31:34;;;;;;;11.20;3.25;;;;;;;8.22;100.00;101767.00;4952728;28;20114;-65
2022/09/19 03:33:59;;;;;;;9.32;2.33;;;;;;;8.24;100.00;101766.84;4952756;29;20065;-65
2022/09/19 03:36:26;;;;;;;10.85;1.45;;;;;;;8.25;100.00;101760.53;4953136;29;20065;-65
2022/09/19 03:38:51;;;;;;;11.00;1.80;;;;;;;8.27;100.00;101771.84;4953227;29;20491;-65
2022/09/19 03:41:20;;;;;;;5.13;2.17;;;;;;;8.27;100.00;101771.84;4952585;29;20118;-65
2022/09/19 03:43:46;;;;;;;10.10;1.95;;;;;;;8.24;100.00;101765.00;4953212;29;20078;-65
2022/09/19 03:46:14;;;;;;;17.02;2.72;;;;;;;8.27;100.00;101767.34;4953243;28;20062;-71
2022/09/19 03:48:44;;;;;;;7.53;1.77;;;;;;;8.27;100.00;101775.31;4952975;29;20070;-71
2022/09/19 03:51:10;;;;;;;7.38;2.05;;;;;;;8.30;100.00;101769.69;4953028;29;20360;-71
2022/09/19 03:53:36;;;;;;;9.05;2.42;;;;;;;8.30;100.00;101768.84;4953057;29;20023;-71
2022/09/19 03:56:02;;;;;;;9.88;1.98;;;;;;;8.34;100.00;101775.53;4953102;29;20043;-71
2022/09/19 03:58:30;;;;;;;8.15;1.83;;;;;;;8.37;100.00;101775.22;4952874;29;20169;-71
2022/09/19 04:00:56;;;;;;;3.88;1.27;;;;;;;8.40;100.00;101771.44;4952789;29;20550;-72
2022/09/19 04:03:23;;;;;;;5.97;1.75;;;;;;;8.43;100.00;101779.91;4952745;29;20039;-71
2022/09/19 04:05:52;;;;;;;9.60;3.00;;;;;;;8.48;100.00;101779.44;4952781;29;20059;-71
2022/09/19 04:08:19;;;;;;;9.10;1.90;;;;;;;8.53;100.00;101782.44;4952652;29;20043;-71
2022/09/19 04:10:44;;;;;;;10.40;1.67;;;;;;;8.56;100.00;101779.47;4950463;29;20378;-71
2022/09/19 04:13:10;;;;;;;8.15;1.48;;;;;;;8.61;100.00;101784.31;4934513;29;20031;-72
2022/09/19 04:15:36;;;;;;;8.95;2.03;;;;;;;8.64;100.00;101783.97;4934242;29;20037;-72
2022/09/19 04:18:03;;;;;;;6.82;1.20;;;;;;;8.66;100.00;101776.69;4934487;29;20122;-71
2022/09/19 04:20:30;;;;;;;9.32;3.33;;;;;;;8.67;100.00;101778.34;4952427;29;20032;-71
2022/09/19 04:22:59;;;;;;;11.15;3.03;;;;;;;8.66;100.00;101782.84;4951894;29;20035;-72
2022/09/19 04:25:33;;;;;;;7.63;1.80;;;;;;;8.68;100.00;101788.00;4952591;29;20086;-71
2022/09/19 04:28:00;;;;;;;5.78;1.33;;;;;;;8.70;100.00;101788.69;4952506;28;20088;-71
2022/09/19 04:30:25;;;;;;;4.80;1.50;;;;;;;8.71;100.00;101785.84;4951892;29;20035;-71
2022/09/19 04:32:51;;;;;;;5.72;1.48;;;;;;;8.75;100.00;101797.84;4952357;28;20027;-72
2022/09/19 04:35:17;;;;;;;7.97;1.85;;;;;;;8.77;100.00;101787.84;4942070;29;20083;-71
2022/09/19 04:37:43;;;;;;;9.40;3.00;;;;;;;8.79;100.00;101793.00;4933949;29;20073;-71
2022/09/19 04:40:08;;;;;;;6.35;1.75;;;;;;;8.82;100.00;101792.69;4951824;29;20498;-71
2022/09/19 04:42:34;;;;;;;11.77;2.55;;;;;;;8.85;100.00;101800.34;4950618;28;20069;-71
2022/09/19 04:45:00;;;;;;;10.48;1.70;;;;;;;8.88;100.00;101804.50;4951459;29;20034;-71
2022/09/19 04:47:25;;;;;;;5.97;2.13;;;;;;;8.89;100.00;101808.84;4951980;28;20455;-71
2022/09/19 04:49:51;;;;;;;7.47;2.15;;;;;;;8.89;100.00;101804.34;4952006;28;20074;-72
2022/09/19 04:52:16;;;;;;;6.35;1.63;;;;;;;8.87;100.00;101801.00;4951975;29;20027;-72
2022/09/19 04:54:43;;;;;;;10.68;3.28;;;;;;;8.86;100.00;101801.19;4937451;29;20071;-72
2022/09/19 04:57:09;;;;;;;4.28;1.30;;;;;;;8.91;100.00;101794.38;4933623;29;20507;-71
2022/09/19 04:59:35;;;;;;;8.52;2.70;;;;;;;8.94;100.00;101803.88;4933336;29;20035;-71
2022/09/19 05:02:01;;;;;;;13.50;2.33;;;;;;;8.95;100.00;101814.34;4933269;29;20051;-72
2022/09/19 05:04:27;;;;;;;12.30;1.73;;;;;;;8.96;100.00;101809.84;4933479;29;20090;-71
2022/09/19 05:06:53;;;;;;;8.15;2.22;;;;;;;8.98;100.00;101811.34;4951425;29;20431;-71
2022/09/19 05:09:18;;;;;;;10.95;2.38;;;;;;;8.97;100.00;101820.34;4951758;29;20126;-71
2022/09/19 05:11:46;;;;;;;5.75;2.33;;;;;;;8.92;100.00;101820.00;4951081;29;20045;-71
2022/09/19 05:14:12;;;;;;;9.13;1.73;;;;;;;8.90;100.00;101815.81;4951464;29;20447;-72
2022/09/19 05:16:37;;;;;;;3.78;1.67;;;;;;;8.92;100.00;101825.31;4951472;29;20867;-72
2022/09/19 05:19:03;;;;;;;9.60;2.20;;;;;;;8.88;100.00;101816.00;4951166;29;20157;-71
2022/09/19 05:21:28;;;;;;;10.95;2.58;;;;;;;8.87;100.00;101819.63;4951351;29;20146;-72
2022/09/19 05:23:54;;;;;;;11.30;2.65;;;;;;;8.85;100.00;101824.28;4951016;29;20360;-72
2022/09/19 05:26:19;;;;;;;5.57;1.90;;;;;;;8.82;100.00;101826.44;4937093;29;20462;-72
2022/09/19 05:28:47;;;;;;;5.53;1.95;;;;;;;8.80;100.00;101834.56;4951071;29;20031;-72
2022/09/19 05:31:16;;;;;;;9.93;2.30;;;;;;;8.74;100.00;101836.03;4945018;29;20161;-71
2022/09/19 05:33:42;;;;;;;7.35;3.50;;;;;;;8.71;100.00;101835.53;4932877;29;20067;-72
2022/09/19 05:36:07;;;;;;;7.45;2.45;;;;;;;8.68;100.00;101842.00;4932864;29;20550;-72
2022/09/19 05:38:33;;;;;;;9.10;3.33;;;;;;;8.67;100.00;101844.81;4932672;29;20039;-72
2022/09/19 05:41:00;;;;;;;7.35;2.45;;;;;;;8.64;100.00;101843.31;4950378;28;20039;-72
2022/09/19 05:43:26;;;;;;;2.78;1.50;;;;;;;8.62;100.00;101845.31;4950777;28;20976;-72
2022/09/19 05:45:53;;;;;;;7.57;2.72;;;;;;;8.60;100.00;101843.81;4950452;29;20035;-72
2022/09/19 05:48:19;;;;;;;9.55;2.10;;;;;;;8.64;100.00;101858.44;4950903;28;20434;-72
2022/09/19 05:50:46;;;;;;;7.30;1.92;;;;;;;8.65;100.00;101854.81;4933639;29;20046;-71
2022/09/19 05:55:57;;;;;;;7.70;2.00;;;;;;;8.70;100.00;101858.66;4951111;28;20514;-71
2022/09/19 05:58:24;;;;;;;10.15;2.60;;;;;;;8.65;100.00;101834.38;4950294;29;20031;-71
2022/09/19 06:00:50;;;;;;;7.00;1.52;;;;;;;8.82;100.00;101861.84;4950772;29;20479;-71
2022/09/19 06:03:16;;;;;;;8.88;3.50;;;;;;;8.84;100.00;101851.88;4950800;29;20034;-71
2022/09/19 06:05:43;;;;;;;4.20;2.58;;;;;;;8.97;100.00;101859.41;4950827;29;20035;-71
2022/09/19 06:08:09;;;;;;;10.10;2.28;;;;;;;9.03;100.00;101860.59;4950487;29;20054;-72
2022/09/19 06:10:38;;;;;;;7.78;2.38;;;;;;;9.10;100.00;101862.44;4950516;28;20031;-71
2022/09/19 06:13:04;;;;;;;7.13;2.35;;;;;;;9.15;100.00;101862.81;4950357;28;20159;-71
2022/09/19 06:15:30;;;;;;;7.32;1.85;;;;;;;9.21;100.00;101866.63;4942569;29;20107;-70
2022/09/19 06:17:58;;;;;;;5.57;1.25;;;;;;;9.25;100.00;101869.78;4950483;29;20471;-70
2022/09/19 06:20:24;;;;;;;6.75;2.33;;;;;;;9.29;100.00;101871.97;4950416;28;20035;-70
2022/09/19 06:22:55;;;;;;;9.32;3.10;;;;;;;9.34;100.00;101868.84;4950657;29;20042;-69
2022/09/19 06:25:21;;;;;;;7.70;2.78;;;;;;;9.35;100.00;101868.69;4950514;29;20035;-70
2022/09/19 06:27:56;;;;;;;8.98;2.20;;;;;;;9.32;100.00;101858.34;4950543;28;20152;-69
2022/09/19 06:30:23;;;;;;;8.13;2.08;;;;;;;9.44;100.00;101875.66;4950515;28;20027;-67
2022/09/19 06:32:52;;;;;;;7.57;2.72;;;;;;;9.53;100.00;101881.84;4950528;29;20027;-69
2022/09/19 06:35:19;;;;;;;8.95;2.05;;;;;;;9.60;100.00;101882.84;4950552;29;20056;-70
2022/09/19 06:37:44;;;;;;;10.52;1.90;;;;;;;9.68;100.00;101882.03;4950326;29;20031;-69
2022/09/19 06:40:11;;;;;;;8.80;2.70;;;;;;;9.68;100.00;101874.03;4950278;29;20084;-69
2022/09/19 06:42:36;;;;;;;9.75;1.90;;;;;;;9.72;100.00;101877.19;4950187;28;20031;-70
2022/09/19 06:45:03;;;;;;;4.88;1.45;;;;;;;9.76;100.00;101878.53;4950379;29;20501;-70
2022/09/19 06:47:29;;;;;;;7.80;2.75;;;;;;;9.82;100.00;101888.53;4949887;29;20027;-70
2022/09/19 06:49:54;;;;;;;8.40;3.33;;;;;;;9.88;100.00;101888.69;4932993;29;20038;-69
2022/09/19 06:52:19;;;;;;;9.30;2.17;;;;;;;9.95;100.00;101899.50;4950292;28;20039;-69
2022/09/19 06:54:45;;;;;;;13.18;2.63;;;;;;;9.91;100.00;101884.03;4950447;29;20070;-69
2022/09/19 06:57:11;;;;;;;11.80;3.65;;;;;;;10.01;100.00;101896.19;4950187;28;20027;-70
2022/09/19 06:59:37;;;;;;;8.63;1.80;;;;;;;10.08;100.00;101901.69;4950148;29;20039;-69
2022/09/19 07:02:03;;;;;;;18.67;2.47;;;;;;;10.17;100.00;101906.03;4949954;29;20043;-69
2022/09/19 07:04:28;;;;;;;8.23;1.92;;;;;;;10.28;100.00;101907.53;4933296;28;20534;-68
2022/09/19 07:06:56;;;;;;;8.45;2.92;;;;;;;10.36;100.00;101912.84;4953284;29;20032;-69
2022/09/19 07:09:22;;;;;;;12.10;3.42;;;;;;;10.43;100.00;101911.19;4953573;29;20053;-69
2022/09/19 07:11:47;;;;;;;7.05;2.53;;;;;;;10.53;100.00;101919.84;4953748;29;20031;-70
2022/09/19 07:14:13;;;;;;;6.45;1.60;;;;;;;10.64;100.00;101923.16;4953557;29;20098;-70
2022/09/19 07:16:38;;;;;;;8.52;2.25;;;;;;;10.77;100.00;101925.25;4936024;29;20028;-70
2022/09/19 07:19:03;;;;;;;8.60;2.45;;;;;;;10.86;100.00;101925.06;4953489;28;20059;-69
2022/09/19 07:21:29;;;;;;;11.90;2.28;;;;;;;10.93;100.00;101925.22;4953148;29;20051;-69
2022/09/19 07:23:54;;;;;;;9.13;1.58;;;;;;;10.96;100.00;101925.69;4953012;29;20112;-69
2022/09/19 07:26:20;;;;;;;5.80;1.95;;;;;;;11.00;100.00;101930.69;4953330;29;20402;-70
2022/09/19 07:28:46;;;;;;;8.70;2.75;;;;;;;11.03;99.75;101941.88;4953027;28;20038;-70
2022/09/19 07:31:11;;;;;;;7.47;1.95;;;;;;;11.03;99.52;101933.00;4953330;29;20067;-73
2022/09/19 07:33:36;;;;;;;5.07;1.60;;;;;;;11.11;99.42;101947.19;4944724;29;20063;-73
2022/09/19 07:36:02;;;;;;;9.38;3.00;;;;;;;11.17;99.28;101946.47;4935040;29;20051;-70
2022/09/19 07:38:27;;;;;;;8.02;1.55;;;;;;;11.21;99.60;101949.63;4935107;29;20040;-73
2022/09/19 07:40:54;;;;;;;5.55;1.88;;;;;;;11.29;100.00;101952.28;4934914;29;20111;-69
2022/09/19 07:43:20;;;;;;;13.23;1.80;;;;;;;11.30;100.00;101953.94;4934894;29;20043;-70
2022/09/19 07:45:48;;;;;;;10.98;2.03;;;;;;;11.30;100.00;101953.94;4934834;29;20027;-69
2022/09/19 07:48:15;;;;;;;9.80;2.55;;;;;;;11.30;100.00;101953.94;4934471;29;20063;-69
2022/09/19 07:50:40;;;;;;;7.03;2.83;;;;;;;11.31;100.00;101960.94;4934651;29;20051;-65
2022/09/19 07:53:10;;;;;;;11.60;2.45;;;;;;;11.38;100.00;101961.91;4934823;29;20106;-65
2022/09/19 07:55:35;;;;;;;6.95;1.77;;;;;;;11.44;100.00;101955.03;4934760;29;20094;-65
2022/09/19 07:58:03;;;;;;;6.63;1.63;;;;;;;11.59;100.00;101958.63;4934528;29;20093;-65
2022/09/19 08:00:30;;;;;;;7.43;2.58;;;;;;;11.72;100.00;101960.72;4934503;29;20046;-66
2022/09/19 08:02:58;;;;;;;10.32;2.33;;;;;;;11.73;100.00;101959.69;4937304;29;20031;-65
2022/09/19 08:05:24;;;;;;;4.00;1.73;;;;;;;11.80;99.90;101965.19;4952484;28;20402;-65
2022/09/19 08:07:51;;;;;;;13.20;2.10;;;;;;;11.84;99.52;101970.00;4952253;29;20442;-65
2022/09/19 08:10:17;;;;;;;4.15;1.63;;;;;;;11.84;99.48;101963.78;4952427;28;20026;-66
2022/09/19 08:12:44;;;;;;;8.90;3.58;;;;;;;11.89;99.32;101976.66;4934417;29;20033;-65
2022/09/19 08:15:16;;;;;;;10.75;2.33;;;;;;;11.93;99.14;101978.81;4934336;29;20061;-65
2022/09/19 08:17:43;;;;;;;6.18;1.60;;;;;;;11.96;99.87;101977.63;4951957;28;20118;-65
2022/09/19 08:20:09;;;;;;;7.15;1.83;;;;;;;11.99;98.71;101980.75;4952123;28;20098;-65
2022/09/19 08:22:34;;;;;;;7.78;2.30;;;;;;;12.06;99.85;101983.56;4952263;29;20066;-65
2022/09/19 08:25:00;;;;;;;7.53;2.17;;;;;;;12.12;99.11;101982.03;4952463;29;20105;-66
2022/09/19 08:27:26;;;;;;;8.77;3.05;;;;;;;12.16;97.96;101986.84;4952452;29;20075;-66
2022/09/19 08:29:51;;;;;;;2.33;1.58;;;;;;;12.19;98.59;101988.31;4952192;29;20031;-66
2022/09/19 08:32:16;;;;;;;4.03;1.50;;;;;;;12.19;99.04;101991.81;4952204;29;20156;-65
2022/09/19 08:34:42;;;;;;;5.25;1.60;;;;;;;12.24;98.64;101992.13;4952324;28;20498;-66
2022/09/19 08:37:07;;;;;;;4.72;2.03;;;;;;;12.24;98.30;101997.47;4951745;29;20031;-65
2022/09/19 08:39:33;;;;;;;7.68;1.98;;;;;;;12.31;97.51;101996.75;4952170;28;20530;-66
2022/09/19 08:42:15;;;;;;;9.88;2.85;;;;;;;12.34;97.68;102007.09;4951956;29;20034;-65
2022/09/19 08:45:01;;;;;;;9.60;2.60;;;;;;;12.38;98.42;102008.41;4951923;29;20035;-65
2022/09/19 08:47:32;;;;;;;2.45;1.25;;;;;;;12.44;97.59;102002.31;4952086;29;20030;-66
2022/09/19 08:50:05;;;;;;;13.32;3.53;;;;;;;12.47;98.61;101999.28;4951724;29;20447;-66
2022/09/19 08:52:36;;;;;;;7.53;1.67;;;;;;;12.55;97.33;102009.06;4951788;29;20035;-66
2022/09/19 08:55:06;;;;;;;11.63;2.45;;;;;;;12.64;97.58;102003.47;4951674;28;20035;-66
2022/09/19 08:57:38;;;;;;;4.30;1.40;;;;;;;12.64;96.08;102003.47;4951746;29;20528;-66
2022/09/19 09:00:07;;;;;;;8.95;2.28;;;;;;;12.68;96.22;102004.78;4951637;29;20075;-66
2022/09/19 09:02:38;;;;;;;12.65;3.25;;;;;;;12.83;95.46;102009.31;4951660;29;20431;-65
2022/09/19 09:05:03;;;;;;;7.75;1.83;;;;;;;13.00;96.31;102004.63;4951635;29;20475;-65
2022/09/19 09:07:51;;;;;;;6.30;1.75;;;;;;;13.20;96.11;101999.53;4951629;28;20031;-65
2022/09/19 09:10:55;;;;;;;7.65;2.35;;;;;;;13.40;94.67;102000.66;4951701;29;20027;-66
2022/09/19 09:13:39;;;;;;;5.95;1.40;;;;;;;13.50;91.66;101995.03;4932723;29;20488;-65
2022/09/19 09:16:11;;;;;;;4.40;1.40;;;;;;;13.60;89.78;101995.56;4932543;29;20019;-65
2022/09/19 09:19:04;;;;;;;6.30;1.83;;;;;;;13.71;90.96;101994.22;4932689;29;20064;-66
2022/09/19 09:21:35;;;;;;;5.50;2.38;;;;;;;13.81;88.66;101998.25;4932724;29;20424;-65
2022/09/19 09:24:25;;;;;;;5.85;2.08;;;;;;;13.91;87.83;101994.44;4933103;29;20023;-66
2022/09/19 09:26:57;;;;;;;10.43;1.23;;;;;;;14.01;87.42;101997.63;4933013;29;20028;-66
2022/09/19 09:29:28;;;;;;;7.10;1.48;;;;;;;14.21;87.18;101995.16;4932464;29;20049;-66
2022/09/19 09:32:14;;;;;;;4.47;1.88;;;;;;;14.26;86.04;101990.03;4932651;29;20122;-66
2022/09/19 09:34:48;;;;;;;14.00;2.30;;;;;;;14.33;86.31;101987.38;4950996;29;20039;-66
2022/09/19 09:37:21;;;;;;;14.15;2.88;;;;;;;14.48;87.38;101994.34;4933869;29;20031;-65
2022/09/19 09:40:00;;;;;;;7.28;2.20;;;;;;;14.61;85.40;101974.84;4951110;29;20046;-65
2022/09/19 09:42:40;;;;;;;7.63;1.58;;;;;;;14.72;82.62;101989.56;4951269;29;20505;-65
2022/09/19 09:45:14;;;;;;;11.88;2.22;;;;;;;14.72;81.97;101983.38;4951280;29;20154;-65
2022/09/19 09:48:07;;;;;;;5.10;1.90;;;;;;;14.67;82.45;101989.34;4951096;29;20415;-65
2022/09/19 09:51:20;;;;;;;7.45;1.88;;;;;;;14.56;82.74;101995.25;4951031;29;20544;-65
2022/09/19 09:54:03;;;;;;;15.32;3.80;;;;;;;14.56;82.56;102000.63;4932590;28;20130;-65
2022/09/19 09:56:54;;;;;;;7.85;1.50;;;;;;;14.70;84.26;101983.59;4950922;29;20027;-66
2022/09/19 10:05:26;;;;;;;3.45;1.70;;;;;;;15.17;78.75;101998.13;4951063;29;20050;-65
2022/09/19 10:08:18;;;;;;;6.60;2.10;;;;;;;14.84;84.88;102009.50;4950468;28;20065;-65
2022/09/19 10:10:46;;;;;;;2.83;0.68;;;;;;;13.74;81.14;102042.09;4950693;28;20042;-64
2022/09/19 10:13:44;;;;;;;6.55;1.90;;;;;;;12.57;88.43;102015.91;4950674;28;20106;-65
2022/09/19 10:16:17;;;;;;;5.55;1.70;;;;;;;12.04;95.76;102007.81;4932710;29;20406;-65
2022/09/19 10:18:51;;;;;;;2.65;0.90;;;;;;;11.83;99.08;102016.44;4950393;29;20082;-65
2022/09/19 10:21:17;;;;;;;4.22;1.77;;;;;;;11.72;100.00;102008.81;4950314;29;20414;-68
2022/09/19 10:23:45;;;;;;;6.30;1.48;;;;;;;11.69;100.00;102008.34;4950624;29;20123;-68
2022/09/19 10:26:15;;;;;;;4.60;2.00;;;;;;;11.79;100.00;102011.63;4950740;29;20388;-69
2022/09/19 10:29:02;;;;;;;6.35;1.90;;;;;;;12.05;100.00;102011.31;4950454;29;20041;-68
2022/09/19 10:31:38;;;;;;;9.10;2.17;;;;;;;12.27;100.00;102015.84;4950558;29;20434;-68
2022/09/19 10:34:22;;;;;;;3.92;1.42;;;;;;;12.32;100.00;102015.31;4931879;29;20380;-68
2022/09/19 10:36:47;;;;;;;4.25;1.17;;;;;;;12.32;100.00;102009.94;4932175;29;20139;-68
2022/09/19 10:39:17;;;;;;;11.75;2.38;;;;;;;12.31;100.00;102015.47;4932393;29;20122;-69
2022/09/19 10:41:43;;;;;;;5.47;1.70;;;;;;;12.33;100.00;102016.13;4953274;28;20141;-68
2022/09/19 10:44:22;;;;;;;5.22;1.38;;;;;;;12.37;100.00;102014.78;4954092;29;20066;-69
2022/09/19 10:46:55;;;;;;;2.20;1.25;;;;;;;12.39;100.00;102018.06;4954225;29;20054;-69
2022/09/19 10:49:24;;;;;;;6.82;2.50;;;;;;;12.50;100.00;101999.75;4954117;29;20175;-69
2022/09/19 10:51:51;;;;;;;11.52;1.50;;;;;;;12.61;100.00;102003.84;4954084;28;20382;-70
2022/09/19 10:54:30;;;;;;;7.43;1.65;;;;;;;12.75;100.00;102007.56;4952419;28;20058;-70
2022/09/19 10:56:58;;;;;;;6.05;1.60;;;;;;;12.76;100.00;102003.88;4935330;29;20480;-71
2022/09/19 10:59:27;;;;;;;5.95;1.50;;;;;;;12.77;100.00;102010.06;4953508;28;20035;-71
2022/09/19 11:02:11;;;;;;;6.97;2.15;;;;;;;12.71;100.00;102004.41;4953753;29;20034;-70
2022/09/19 11:04:37;;;;;;;4.90;1.30;;;;;;;12.76;100.00;102008.38;4954005;29;20447;-70
2022/09/19 11:07:16;;;;;;;10.55;1.48;;;;;;;12.85;99.81;102007.28;4953925;29;20391;-70
2022/09/19 11:09:43;;;;;;;9.77;2.28;;;;;;;12.99;100.00;102017.16;4953621;29;20054;-70
2022/09/19 11:12:15;;;;;;;4.72;1.33;;;;;;;12.99;98.59;102013.66;4953956;29;20355;-71
2022/09/19 11:14:43;;;;;;;2.65;0.93;;;;;;;12.81;96.76;102009.53;4953488;28;20031;-69
2022/09/19 11:17:37;;;;;;;2.80;1.13;;;;;;;12.59;92.59;102019.25;4953544;28;20055;-70
2022/09/19 11:20:21;;;;;;;7.82;1.60;;;;;;;12.29;93.87;102029.03;4953470;29;20059;-70
2022/09/19 11:23:10;;;;;;;4.07;0.73;;;;;;;12.11;95.00;102015.97;4953418;29;20032;-70
2022/09/19 11:25:47;;;;;;;4.13;1.23;;;;;;;12.01;95.25;102016.19;4934307;29;20023;-71
2022/09/19 11:28:34;;;;;;;5.53;1.08;;;;;;;12.03;97.96;102021.38;4952794;29;20109;-71
2022/09/19 11:31:27;;;;;;;6.50;2.20;;;;;;;12.05;98.32;102032.69;4936566;29;20042;-71
2022/09/19 11:34:03;;;;;;;3.92;0.80;;;;;;;12.08;100.00;102027.03;4934970;29;20035;-71
2022/09/19 11:36:37;;;;;;;2.33;0.90;;;;;;;12.16;97.73;102032.31;4952836;29;20038;-71
2022/09/19 11:39:14;;;;;;;6.15;1.40;;;;;;;12.27;100.00;102015.00;4942500;28;20031;-69
2022/09/19 11:41:47;;;;;;;3.90;1.38;;;;;;;12.44;100.00;102013.88;4938266;28;20023;-69
2022/09/19 11:44:43;;;;;;;2.75;0.80;;;;;;;12.65;97.43;102020.34;4938594;28;20035;-71
2022/09/19 11:47:14;;;;;;;4.65;1.77;;;;;;;12.98;94.02;102020.06;4938651;28;20034;-66
2022/09/19 11:50:02;;;;;;;7.85;0.90;;;;;;;13.28;92.83;102005.69;4937959;28;20034;-65
2022/09/19 11:53:08;;;;;;;6.95;1.15;;;;;;;13.55;93.81;102006.00;4938120;28;20027;-65
2022/09/19 11:55:46;;;;;;;3.28;1.35;;;;;;;13.90;95.37;102001.66;4928150;28;20551;-66